TimeCDT,TemperatureF,Dew PointF,Humidity,Sea Level PressureIn,VisibilityMPH,Wind Direction,Wind SpeedMPH,Gust SpeedMPH,PrecipitationIn,Events,Conditions,WindDirDegrees,DateUTC
12:15 AM,43.2,35.6,75,30.19,10.0,Calm,Calm,-,N/A,,Clear,0,2012-10-08 05:15:00
12:35 AM,43.9,35.6,73,30.20,10.0,Calm,Calm,-,N/A,,Clear,0,2012-10-08 05:35:00
12:55 AM,44.1,36.0,73,30.20,10.0,Calm,Calm,-,N/A,,Clear,0,2012-10-08 05:55:00
1:15 AM,44.1,36.0,73,30.19,10.0,NNE,3.5,-,N/A,,Clear,30,2012-10-08 06:15:00
1:35 AM,44.6,35.2,70,30.19,10.0,Calm,Calm,-,N/A,,Clear,0,2012-10-08 06:35:00
1:55 AM,44.6,35.1,69,30.20,10.0,Calm,Calm,-,N/A,,Clear,0,2012-10-08 06:55:00
2:15 AM,44.2,35.6,72,30.19,10.0,Calm,Calm,-,N/A,,Clear,0,2012-10-08 07:15:00
2:35 AM,44.1,36.0,73,30.20,10.0,Calm,Calm,-,N/A,,Clear,0,2012-10-08 07:35:00
2:55 AM,44.1,36.1,74,30.19,10.0,Calm,Calm,-,N/A,,Scattered Clouds,0,2012-10-08 07:55:00
3:15 AM,44.1,36.5,75,30.18,10.0,North,4.6,-,N/A,,Mostly Cloudy,10,2012-10-08 08:15:00
3:35 AM,43.9,36.5,75,30.18,10.0,Calm,Calm,-,N/A,,Scattered Clouds,0,2012-10-08 08:35:00
3:55 AM,43.9,36.3,75,30.18,10.0,Calm,Calm,-,N/A,,Scattered Clouds,0,2012-10-08 08:55:00
4:15 AM,43.7,36.5,76,30.18,10.0,NNE,4.6,-,N/A,,Mostly Cloudy,30,2012-10-08 09:15:00
4:35 AM,43.9,36.5,75,30.18,10.0,NNE,4.6,-,N/A,,Mostly Cloudy,20,2012-10-08 09:35:00
4:55 AM,43.9,36.3,75,30.18,10.0,Calm,Calm,-,N/A,,Mostly Cloudy,0,2012-10-08 09:55:00
5:15 AM,43.7,36.7,76,30.19,10.0,Calm,Calm,-,N/A,,Mostly Cloudy,0,2012-10-08 10:15:00
5:35 AM,43.7,36.7,76,30.19,10.0,Calm,Calm,-,N/A,,Mostly Cloudy,0,2012-10-08 10:35:00
6:15 AM,43.3,37.2,79,30.19,10.0,Calm,Calm,-,N/A,,Mostly Cloudy,0,2012-10-08 11:15:00
6:35 AM,43.5,37.0,78,30.20,10.0,Calm,Calm,-,N/A,,Overcast,0,2012-10-08 11:35:00
6:55 AM,43.5,37.0,78,30.21,10.0,Calm,Calm,-,N/A,,Overcast,0,2012-10-08 11:55:00
7:15 AM,43.3,37.2,79,30.19,10.0,NE,3.5,-,N/A,,Overcast,40,2012-10-08 12:15:00
7:35 AM,43.7,37.2,78,30.23,10.0,Calm,Calm,-,N/A,,Overcast,0,2012-10-08 12:35:00
7:55 AM,43.9,37.4,78,30.24,10.0,Calm,Calm,-,N/A,,Overcast,0,2012-10-08 12:55:00
8:15 AM,44.1,37.9,79,30.21,10.0,Calm,Calm,-,N/A,,Overcast,0,2012-10-08 13:15:00
8:35 AM,44.4,37.8,77,30.23,10.0,Calm,Calm,-,N/A,,Overcast,0,2012-10-08 13:35:00
8:55 AM,44.8,37.9,77,30.23,10.0,Calm,Calm,-,N/A,,Overcast,0,2012-10-08 13:55:00
9:15 AM,45.3,38.1,76,30.22,10.0,East,4.6,-,N/A,,Overcast,80,2012-10-08 14:15:00
9:35 AM,45.9,38.3,75,30.23,10.0,Calm,Calm,-,N/A,,Overcast,0,2012-10-08 14:35:00
9:55 AM,46.6,38.8,74,30.23,10.0,Calm,Calm,-,N/A,,Overcast,0,2012-10-08 14:55:00
10:15 AM,47.1,38.8,73,30.23,10.0,Calm,Calm,-,N/A,,Overcast,0,2012-10-08 15:15:00
10:35 AM,48.4,39.2,71,30.22,10.0,Calm,Calm,-,N/A,,Overcast,0,2012-10-08 15:35:00
10:55 AM,50.7,39.6,66,30.22,10.0,Calm,Calm,-,N/A,,Mostly Cloudy,0,2012-10-08 15:55:00
11:15 AM,52.7,39.9,62,30.22,10.0,West,3.5,-,N/A,,Scattered Clouds,260,2012-10-08 16:15:00
11:35 AM,54.3,39.6,57,30.22,10.0,West,4.6,-,N/A,,Scattered Clouds,260,2012-10-08 16:35:00
11:55 AM,54.5,39.2,56,30.22,10.0,SW,4.6,-,N/A,,Mostly Cloudy,230,2012-10-08 16:55:00
12:15 PM,55.2,39.0,54,30.21,10.0,Calm,Calm,-,N/A,,Mostly Cloudy,0,2012-10-08 17:15:00
12:35 PM,56.8,38.3,50,30.21,10.0,WSW,4.6,-,N/A,,Scattered Clouds,250,2012-10-08 17:35:00
12:55 PM,56.3,38.1,51,30.20,10.0,Calm,Calm,-,N/A,,Mostly Cloudy,0,2012-10-08 17:55:00
1:15 PM,57.6,37.0,46,30.19,10.0,Calm,Calm,-,N/A,,Mostly Cloudy,0,2012-10-08 18:15:00
1:35 PM,57.4,36.5,46,30.18,10.0,NNW,3.5,-,N/A,,Mostly Cloudy,340,2012-10-08 18:35:00
1:55 PM,55.9,36.0,47,30.17,10.0,SW,3.5,-,N/A,,Scattered Clouds,220,2012-10-08 18:55:00
2:15 PM,57.9,35.8,44,30.17,10.0,Calm,Calm,-,N/A,,Scattered Clouds,0,2012-10-08 19:15:00
2:35 PM,57.6,36.0,44,30.17,10.0,West,4.6,-,N/A,,Mostly Cloudy,270,2012-10-08 19:35:00
2:55 PM,59.2,36.7,43,30.16,10.0,WSW,3.5,-,N/A,,Overcast,250,2012-10-08 19:55:00
3:15 PM,59.5,36.0,41,30.15,10.0,Calm,Calm,-,N/A,,Overcast,0,2012-10-08 20:15:00
3:35 PM,59.9,34.3,38,30.14,10.0,NE,5.8,-,N/A,,Mostly Cloudy,40,2012-10-08 20:35:00
3:55 PM,59.5,34.3,39,30.13,10.0,ENE,3.5,-,N/A,,Clear,60,2012-10-08 20:55:00
4:15 PM,58.3,35.2,42,30.14,10.0,ESE,3.5,-,N/A,,Clear,110,2012-10-08 21:15:00
4:35 PM,57.7,34.9,42,30.13,10.0,Calm,Calm,-,N/A,,Clear,0,2012-10-08 21:35:00
4:55 PM,58.3,34.3,41,30.14,10.0,Calm,Calm,-,N/A,,Clear,0,2012-10-08 21:55:00
5:15 PM,58.3,33.6,39,30.14,10.0,Calm,Calm,-,N/A,,Clear,0,2012-10-08 22:15:00
5:35 PM,58.1,33.8,40,30.14,10.0,Calm,Calm,-,N/A,,Clear,0,2012-10-08 22:35:00
5:55 PM,57.2,35.4,44,30.14,10.0,Calm,Calm,-,N/A,,Clear,0,2012-10-08 22:55:00
6:15 PM,54.3,37.4,53,30.13,10.0,Calm,Calm,-,N/A,,Clear,0,2012-10-08 23:15:00
6:35 PM,51.1,38.7,63,30.13,10.0,Calm,Calm,-,N/A,,Clear,0,2012-10-08 23:35:00
6:55 PM,48.9,38.8,68,30.14,10.0,Calm,Calm,-,N/A,,Clear,0,2012-10-08 23:55:00
7:15 PM,47.8,38.8,71,30.14,10.0,Calm,Calm,-,N/A,,Clear,0,2012-10-09 00:15:00
7:35 PM,47.1,39.0,73,30.14,10.0,Calm,Calm,-,N/A,,Clear,0,2012-10-09 00:35:00
8:15 PM,44.8,39.0,80,30.15,5.0,Calm,Calm,-,N/A,,Haze,0,2012-10-09 01:15:00
8:35 PM,43.7,39.9,87,30.15,10.0,Calm,Calm,-,N/A,,Clear,0,2012-10-09 01:35:00
8:55 PM,42.6,40.6,93,30.16,10.0,Calm,Calm,-,N/A,,Clear,0,2012-10-09 01:55:00
9:15 PM,42.1,42.1,100,30.16,10.0,Calm,Calm,-,N/A,,Clear,0,2012-10-09 02:15:00
9:35 PM,41.2,41.2,100,30.16,10.0,Calm,Calm,-,N/A,,Clear,0,2012-10-09 02:35:00
9:55 PM,40.6,40.6,100,30.16,10.0,Calm,Calm,-,N/A,,Clear,0,2012-10-09 02:55:00
10:15 PM,41.2,41.2,100,30.16,10.0,Calm,Calm,-,N/A,,Clear,0,2012-10-09 03:15:00
10:35 PM,41.5,41.5,100,30.17,10.0,Calm,Calm,-,N/A,,Clear,0,2012-10-09 03:35:00
10:55 PM,41.7,41.7,100,30.17,10.0,Calm,Calm,-,N/A,,Clear,0,2012-10-09 03:55:00
11:15 PM,42.6,42.6,100,30.16,10.0,Calm,Calm,-,N/A,,Clear,0,2012-10-09 04:15:00
11:35 PM,43.5,43.3,99,30.17,10.0,Calm,Calm,-,N/A,,Clear,0,2012-10-09 04:35:00